Terminal Aerodrome Forecast
Issued by NWS Brownsville, TX

Home | Current Version | Previous Version | Text Only | Print | Product List | Glossary On
Versions: 1 2 3 4 5 6 7 8 9 10 11 12 13 14
000
FTUS44 KBRO 281700
TAFBRO
TAF
KBRO 281728Z 2818/2918 16013G18KT P6SM SCT040
     FM290100 13008KT P6SM SKC
     FM290700 16005KT P6SM FEW015
     FM291400 17012KT P6SM FEW035=

USA.gov is the U.S. government's official web portal to all federal, state and local government web resources and services.